Time;durP1;ratioP1;P1;durP2;ratioP2;P2;SDS_P1;SDS_P2;PMS_P1;PMS_P2;Temp;Humidity;BMP_temperature;BMP_pressure;BME280_temperature;BME280_humidity;BME280_pressure;Samples;Min_cycle;Max_cycle;Signal;HPM_P1;HPM_P2
2022/08/30 00:01:04;;;;;;;4.40;3.17;;;24.00;57.30;;;;;;5033482;28;20535;-63
2022/08/30 00:03:35;;;;;;;2.13;2.03;;;24.00;57.40;;;;;;5033596;28;20444;-62
2022/08/30 00:06:04;;;;;;;2.27;2.17;;;24.00;57.50;;;;;;5032102;28;21093;-63
2022/08/30 00:08:31;;;;;;;3.00;2.20;;;24.00;57.60;;;;;;5032807;28;20525;-63
2022/08/30 00:10:58;;;;;;;2.83;1.87;;;24.00;57.80;;;;;;5033793;28;20468;-63
2022/08/30 00:13:25;;;;;;;8.23;2.53;;;24.00;57.90;;;;;;5033139;28;20520;-63
2022/08/30 00:15:52;;;;;;;2.07;1.80;;;24.00;58.00;;;;;;5033314;28;20858;-63
2022/08/30 00:18:21;;;;;;;2.23;2.10;;;24.00;58.20;;;;;;5033669;28;20969;-63
2022/08/30 00:20:50;;;;;;;2.37;2.17;;;24.00;58.30;;;;;;5033257;28;20453;-63
2022/08/30 00:23:18;;;;;;;2.73;2.50;;;24.00;58.50;;;;;;5032962;28;20433;-63
2022/08/30 00:25:45;;;;;;;2.40;2.00;;;24.00;58.60;;;;;;5033151;28;21009;-63
2022/08/30 00:28:12;;;;;;;2.73;2.27;;;24.00;58.70;;;;;;5033104;28;20532;-63
2022/08/30 00:30:39;;;;;;;2.67;2.47;;;24.00;58.90;;;;;;5032974;28;20628;-59
2022/08/30 00:33:06;;;;;;;1.93;1.83;;;24.00;59.00;;;;;;5033127;28;20838;-61
2022/08/30 00:35:33;;;;;;;2.13;1.93;;;24.00;59.10;;;;;;5069690;22;21008;-67
2022/08/30 00:38:02;;;;;;;2.60;2.40;;;24.00;59.10;;;;;;5013020;28;20536;-67
2022/08/30 00:40:29;;;;;;;3.03;2.37;;;24.00;59.30;;;;;;5012893;28;20789;-67
2022/08/30 00:42:58;;;;;;;3.00;2.50;;;24.00;59.40;;;;;;5012377;28;21042;-66
2022/08/30 00:45:28;;;;;;;3.87;2.57;;;24.00;59.60;;;;;;5015297;28;20485;-66
2022/08/30 00:47:55;;;;;;;2.30;2.10;;;24.00;59.70;;;;;;5032734;28;20949;-67
2022/08/30 00:50:27;;;;;;;2.40;2.30;;;24.00;59.80;;;;;;5032439;28;20440;-66
2022/08/30 00:52:58;;;;;;;2.20;2.10;;;24.00;59.90;;;;;;5023506;28;20513;-66
2022/08/30 00:55:27;;;;;;;2.70;2.50;;;24.00;60.00;;;;;;5026299;28;20814;-67
2022/08/30 00:57:58;;;;;;;3.60;2.33;;;24.00;60.10;;;;;;5032402;28;20441;-65
2022/08/30 01:00:26;;;;;;;2.30;2.20;;;24.00;60.40;;;;;;5032317;28;20484;-67
2022/08/30 01:02:53;;;;;;;2.73;2.53;;;24.00;60.50;;;;;;5023889;28;21024;-66
2022/08/30 01:05:21;;;;;;;2.10;2.00;;;24.00;60.60;;;;;;5012590;28;20528;-67
2022/08/30 01:07:47;;;;;;;3.57;2.70;;;24.00;60.70;;;;;;5012622;28;21019;-66
2022/08/30 01:10:16;;;;;;;2.17;2.07;;;23.90;60.70;;;;;;5012426;28;20501;-66
2022/08/30 01:12:46;;;;;;;2.60;2.50;;;24.00;60.90;;;;;;5018305;28;20544;-66
2022/08/30 01:15:14;;;;;;;2.30;1.90;;;24.00;60.90;;;;;;5032110;28;20495;-66
2022/08/30 01:17:43;;;;;;;1.93;1.83;;;24.00;61.00;;;;;;5032197;28;20437;-67
2022/08/30 01:20:13;;;;;;;2.03;1.93;;;24.00;61.10;;;;;;5031990;28;20441;-67
2022/08/30 01:22:46;;;;;;;3.00;2.80;;;24.00;61.30;;;;;;5025773;28;20473;-65
2022/08/30 01:25:17;;;;;;;2.93;2.73;;;24.00;61.30;;;;;;5012404;28;20936;-65
2022/08/30 01:27:49;;;;;;;5.80;3.60;;;24.00;61.50;;;;;;5012246;28;20528;-65
2022/08/30 01:30:17;;;;;;;2.60;2.40;;;24.00;61.60;;;;;;5012122;28;20549;-65
2022/08/30 01:32:46;;;;;;;2.37;2.27;;;24.00;61.90;;;;;;5018253;28;20445;-65
2022/08/30 01:35:15;;;;;;;2.03;1.93;;;24.00;62.00;;;;;;5031898;28;20942;-66
2022/08/30 01:37:45;;;;;;;2.20;2.10;;;24.00;62.10;;;;;;5031841;28;20893;-66
2022/08/30 01:40:18;;;;;;;2.23;2.07;;;24.00;62.20;;;;;;5031708;28;20929;-65
2022/08/30 01:42:45;;;;;;;2.87;2.67;;;24.00;62.20;;;;;;5025282;28;20446;-65
2022/08/30 01:45:12;;;;;;;2.23;2.10;;;23.90;62.10;;;;;;5011987;28;20629;-66
2022/08/30 01:47:40;;;;;;;2.50;2.40;;;24.00;62.40;;;;;;5013036;28;20453;-65
2022/08/30 01:50:09;;;;;;;2.23;1.93;;;24.00;62.50;;;;;;5012030;28;20456;-66
2022/08/30 01:52:36;;;;;;;2.30;2.20;;;24.00;62.60;;;;;;5016698;28;20445;-66
2022/08/30 01:55:04;;;;;;;2.23;2.13;;;24.00;62.80;;;;;;5031740;28;20858;-66
2022/08/30 01:57:33;;;;;;;4.83;2.33;;;24.00;63.10;;;;;;5031829;28;20501;-66
2022/08/30 01:59:59;;;;;;;2.10;2.00;;;24.00;63.10;;;;;;5031569;28;20507;-65
2022/08/30 02:02:29;;;;;;;2.47;2.27;;;24.00;63.30;;;;;;5014586;28;20454;-67
2022/08/30 02:04:56;;;;;;;3.70;2.70;;;24.00;63.50;;;;;;5012087;28;20784;-66
2022/08/30 02:07:24;;;;;;;2.53;2.33;;;24.00;63.50;;;;;;5011894;28;20884;-66
2022/08/30 02:09:51;;;;;;;3.27;2.23;;;23.90;63.40;;;;;;5020607;28;20493;-66
2022/08/30 02:12:18;;;;;;;3.03;2.83;;;24.00;64.40;;;;;;5031630;28;20887;-65
2022/08/30 02:14:46;;;;;;;2.73;2.53;;;23.90;64.40;;;;;;5031551;28;20565;-66
2022/08/30 02:17:14;;;;;;;2.60;2.40;;;23.90;64.00;;;;;;5031616;28;20559;-66
2022/08/30 02:19:42;;;;;;;2.27;2.07;;;23.90;64.10;;;;;;5026650;28;20944;-66
2022/08/30 02:22:09;;;;;;;2.93;2.73;;;23.90;64.60;;;;;;5020022;28;20948;-66
2022/08/30 02:24:36;;;;;;;2.80;2.67;;;23.90;65.10;;;;;;5015694;28;20507;-66
2022/08/30 02:27:03;;;;;;;4.23;3.00;;;23.90;65.40;;;;;;5015485;28;20498;-65
2022/08/30 02:29:30;;;;;;;2.77;2.57;;;23.90;65.70;;;;;;5021181;28;20531;-66
2022/08/30 02:31:59;;;;;;;2.70;2.50;;;23.90;66.00;;;;;;5035433;28;20542;-66
2022/08/30 02:34:26;;;;;;;2.90;2.60;;;23.90;66.40;;;;;;5035206;28;20911;-66
2022/08/30 02:36:53;;;;;;;2.70;2.57;;;23.90;66.70;;;;;;5035108;28;21033;-65
2022/08/30 02:39:20;;;;;;;3.63;3.33;;;23.90;67.10;;;;;;5030672;28;20520;-65
2022/08/30 02:41:47;;;;;;;2.93;2.73;;;23.80;67.10;;;;;;5015314;28;20476;-66
2022/08/30 02:44:14;;;;;;;3.17;2.97;;;23.90;67.50;;;;;;5015438;28;20876;-67
2022/08/30 02:46:41;;;;;;;3.70;3.40;;;23.80;67.70;;;;;;5015331;28;20462;-65
2022/08/30 02:49:10;;;;;;;2.87;2.70;;;23.90;68.00;;;;;;5017249;28;20572;-66
2022/08/30 02:51:38;;;;;;;3.07;2.80;;;23.80;68.10;;;;;;5035061;28;20811;-65
2022/08/30 02:54:05;;;;;;;2.10;2.00;;;23.80;69.20;;;;;;5034821;28;20491;-66
2022/08/30 02:56:32;;;;;;;2.60;2.50;;;23.80;68.70;;;;;;5034957;28;20580;-67
2022/08/30 02:58:59;;;;;;;2.73;2.43;;;23.80;68.90;;;;;;5033195;28;20455;-67
2022/08/30 03:01:26;;;;;;;2.30;2.20;;;23.80;69.00;;;;;;5028277;28;20528;-66
2022/08/30 03:03:53;;;;;;;2.90;2.80;;;23.80;69.20;;;;;;5015221;28;20534;-67
2022/08/30 03:06:21;;;;;;;2.63;2.47;;;23.80;69.40;;;;;;5014827;28;20640;-66
2022/08/30 03:08:48;;;;;;;2.80;2.60;;;23.80;69.60;;;;;;5015989;28;20449;-67
2022/08/30 03:11:15;;;;;;;2.90;2.70;;;23.80;69.70;;;;;;5034537;28;20460;-67
2022/08/30 03:13:42;;;;;;;2.23;2.13;;;23.80;69.80;;;;;;5034856;28;20576;-67
2022/08/30 03:16:09;;;;;;;3.33;2.83;;;23.80;69.90;;;;;;5034522;28;20497;-67
2022/08/30 03:18:36;;;;;;;2.80;2.60;;;23.80;70.10;;;;;;5034200;28;20968;-65
2022/08/30 03:21:05;;;;;;;3.10;2.90;;;23.70;70.20;;;;;;5014520;28;20489;-67
2022/08/30 03:23:33;;;;;;;3.80;2.60;;;23.80;70.50;;;;;;5014737;28;20454;-66
2022/08/30 03:26:00;;;;;;;3.30;3.00;;;23.80;70.80;;;;;;5014511;28;20553;-65
2022/08/30 03:28:28;;;;;;;2.80;2.60;;;23.80;70.90;;;;;;5014192;28;20450;-66
2022/08/30 03:30:55;;;;;;;2.53;2.43;;;23.80;70.90;;;;;;5014635;28;20456;-66
2022/08/30 03:33:22;;;;;;;2.73;2.63;;;23.80;71.20;;;;;;5014288;28;20449;-67
2022/08/30 03:35:49;;;;;;;2.97;2.60;;;23.70;71.20;;;;;;5013890;28;20568;-66
2022/08/30 03:38:16;;;;;;;2.67;2.47;;;23.70;71.30;;;;;;5014426;28;20456;-66
2022/08/30 03:40:45;;;;;;;2.97;2.70;;;23.70;71.50;;;;;;5013933;28;20446;-66
2022/08/30 03:43:11;;;;;;;3.37;3.17;;;23.70;71.60;;;;;;5014609;28;20516;-66
2022/08/30 03:45:39;;;;;;;2.60;2.40;;;23.70;71.80;;;;;;5014492;28;20967;-65
2022/08/30 03:48:06;;;;;;;3.17;2.97;;;23.70;71.90;;;;;;5013958;28;20935;-66
2022/08/30 03:50:34;;;;;;;3.53;3.23;;;23.70;72.10;;;;;;5013839;28;20541;-64
2022/08/30 03:53:01;;;;;;;3.43;3.13;;;23.70;72.20;;;;;;5014036;28;20940;-65
2022/08/30 03:55:28;;;;;;;4.10;3.73;;;23.70;72.40;;;;;;5013971;28;20488;-67
2022/08/30 03:57:57;;;;;;;3.03;2.70;;;23.70;72.50;;;;;;5014028;28;20951;-66
2022/08/30 04:00:24;;;;;;;3.43;3.13;;;23.70;72.70;;;;;;5013775;28;20461;-66
2022/08/30 04:02:51;;;;;;;2.13;2.03;;;23.70;72.80;;;;;;5013971;28;20959;-65
2022/08/30 04:05:18;;;;;;;3.47;3.10;;;23.70;73.00;;;;;;5013743;28;20876;-66
2022/08/30 04:07:45;;;;;;;3.40;3.20;;;23.70;73.20;;;;;;5013696;28;20485;-65
2022/08/30 04:10:12;;;;;;;3.10;2.90;;;23.70;73.30;;;;;;5013769;28;20450;-65
2022/08/30 04:12:39;;;;;;;3.60;3.00;;;23.70;73.40;;;;;;5013715;28;20481;-66
2022/08/30 04:15:10;;;;;;;4.07;3.20;;;23.70;73.60;;;;;;5013597;28;20565;-66
2022/08/30 04:17:36;;;;;;;4.20;3.80;;;23.70;73.70;;;;;;5013246;28;20446;-66
2022/08/30 04:20:04;;;;;;;5.70;2.90;;;23.70;73.90;;;;;;5013374;28;20985;-65
2022/08/30 04:22:31;;;;;;;3.37;3.17;;;23.60;74.00;;;;;;5013558;28;20496;-66
2022/08/30 04:24:58;;;;;;;4.83;3.00;;;23.60;74.00;;;;;;5013535;28;20446;-66
2022/08/30 04:27:25;;;;;;;3.83;3.17;;;23.60;74.50;;;;;;5013121;28;20497;-66
2022/08/30 04:29:52;;;;;;;4.37;3.97;;;23.60;74.80;;;;;;5013153;28;20442;-65
2022/08/30 04:32:21;;;;;;;3.43;3.13;;;23.60;74.90;;;;;;5013408;28;20451;-66
2022/08/30 04:34:48;;;;;;;3.00;2.70;;;23.60;75.00;;;;;;5013172;28;20528;-66
2022/08/30 04:37:15;;;;;;;2.93;2.60;;;23.60;75.20;;;;;;5013003;28;20564;-66
2022/08/30 04:39:42;;;;;;;2.77;2.57;;;23.60;75.30;;;;;;5012915;28;20511;-65
2022/08/30 04:42:10;;;;;;;3.67;3.43;;;23.60;75.40;;;;;;5013126;28;20513;-66
2022/08/30 04:44:37;;;;;;;5.90;3.87;;;23.60;75.70;;;;;;5013223;28;20442;-67
2022/08/30 04:47:04;;;;;;;9.60;4.97;;;23.60;78.70;;;;;;5011840;28;20504;-67
2022/08/30 04:49:32;;;;;;;11.93;5.07;;;23.60;81.80;;;;;;5012817;28;20446;-66
2022/08/30 04:51:59;;;;;;;10.87;6.70;;;23.60;85.70;;;;;;5012975;28;20453;-67
2022/08/30 04:54:26;;;;;;;7.00;4.23;;;23.60;87.00;;;;;;5012835;28;20535;-67
2022/08/30 04:56:53;;;;;;;5.60;4.00;;;23.60;85.20;;;;;;5012501;28;20520;-62
2022/08/30 04:59:20;;;;;;;7.60;3.60;;;23.70;85.90;;;;;;5024902;28;20525;-64
2022/08/30 05:01:47;;;;;;;6.47;3.80;;;23.70;85.20;;;;;;5032468;28;20527;-64
2022/08/30 05:04:15;;;;;;;7.17;4.67;;;23.70;83.90;;;;;;5032523;28;20511;-64
2022/08/30 05:06:44;;;;;;;7.13;3.33;;;23.70;82.80;;;;;;5032173;28;20881;-64
2022/08/30 05:09:10;;;;;;;4.23;3.83;;;23.70;82.00;;;;;;5032168;28;20445;-64
2022/08/30 05:11:37;;;;;;;5.30;3.50;;;23.80;81.40;;;;;;5032668;28;20448;-64
2022/08/30 05:14:04;;;;;;;4.83;3.20;;;23.80;80.60;;;;;;5032195;28;20532;-64
2022/08/30 05:16:31;;;;;;;7.53;3.70;;;23.80;80.00;;;;;;5032168;28;21013;-64
2022/08/30 05:18:59;;;;;;;12.87;4.70;;;23.80;79.50;;;;;;5032074;28;20476;-64
2022/08/30 05:21:27;;;;;;;3.80;3.40;;;23.80;78.80;;;;;;5032148;28;20507;-64
2022/08/30 05:23:57;;;;;;;5.20;4.00;;;23.80;78.40;;;;;;5032055;28;20473;-63
2022/08/30 05:26:27;;;;;;;6.70;3.40;;;23.80;78.00;;;;;;5032062;28;20465;-64
2022/08/30 05:28:54;;;;;;;4.23;3.30;;;23.80;77.60;;;;;;5031883;28;20503;-64
2022/08/30 05:31:23;;;;;;;5.43;3.80;;;23.80;77.20;;;;;;5031998;28;20575;-64
2022/08/30 05:33:52;;;;;;;4.70;3.47;;;23.80;76.80;;;;;;5032208;28;20528;-62
2022/08/30 05:36:20;;;;;;;5.00;3.07;;;23.80;76.60;;;;;;5031747;28;20920;-64
2022/08/30 05:38:47;;;;;;;3.13;2.93;;;23.80;76.20;;;;;;5031965;28;20441;-64
2022/08/30 05:41:16;;;;;;;6.53;3.10;;;23.80;75.90;;;;;;5031815;28;20541;-64
2022/08/30 05:43:43;;;;;;;3.23;3.03;;;23.80;75.70;;;;;;5031803;28;20487;-64
2022/08/30 05:46:13;;;;;;;4.10;2.90;;;23.80;75.40;;;;;;5031873;28;20469;-64
2022/08/30 05:48:40;;;;;;;3.77;3.50;;;23.90;75.20;;;;;;5031691;28;20446;-64
2022/08/30 05:51:10;;;;;;;4.37;4.07;;;23.90;75.00;;;;;;5031745;28;20441;-64
2022/08/30 05:53:37;;;;;;;5.30;4.00;;;23.80;74.60;;;;;;5031702;28;20449;-63
2022/08/30 05:56:07;;;;;;;3.10;2.90;;;23.90;74.50;;;;;;5031514;28;20576;-63
2022/08/30 05:58:36;;;;;;;3.60;3.00;;;23.90;74.30;;;;;;5031448;28;20533;-62
2022/08/30 06:01:04;;;;;;;4.67;2.70;;;23.90;74.20;;;;;;5031830;28;20943;-63
2022/08/30 06:03:31;;;;;;;5.63;3.13;;;23.90;73.90;;;;;;5031721;28;21036;-63
2022/08/30 06:05:58;;;;;;;2.80;2.60;;;23.90;73.80;;;;;;5031581;28;20481;-64
2022/08/30 06:08:25;;;;;;;3.40;3.10;;;23.90;73.60;;;;;;5031334;28;20441;-61
2022/08/30 06:10:53;;;;;;;3.10;2.80;;;23.90;73.40;;;;;;5031600;28;20481;-64
2022/08/30 06:13:21;;;;;;;3.60;2.67;;;23.90;73.30;;;;;;5031704;28;20476;-64
2022/08/30 06:15:51;;;;;;;3.63;2.83;;;23.90;73.10;;;;;;5031433;28;20512;-63
2022/08/30 06:18:18;;;;;;;4.10;2.57;;;23.80;72.90;;;;;;5031679;28;20532;-64
2022/08/30 06:20:47;;;;;;;4.60;2.70;;;23.90;72.80;;;;;;5031333;28;20533;-63
2022/08/30 06:23:16;;;;;;;3.43;3.10;;;23.90;72.70;;;;;;5031457;28;20809;-64
2022/08/30 06:25:43;;;;;;;3.80;3.50;;;23.90;72.50;;;;;;5031385;28;20469;-64
2022/08/30 06:28:11;;;;;;;3.13;2.67;;;23.90;72.40;;;;;;5031463;28;20480;-63
2022/08/30 06:30:40;;;;;;;2.70;2.50;;;23.90;72.40;;;;;;5031202;28;20473;-63
2022/08/30 06:33:09;;;;;;;4.60;4.20;;;23.90;72.20;;;;;;5031542;28;20523;-64
2022/08/30 06:38:08;;;;;;;3.67;3.47;;;23.90;72.00;;;;;;5029763;28;20461;-66
2022/08/30 06:40:36;;;;;;;3.80;3.40;;;23.90;71.80;;;;;;5030937;28;20472;-66
2022/08/30 06:43:03;;;;;;;5.20;3.50;;;23.90;71.80;;;;;;5031260;28;20492;-66
2022/08/30 06:45:30;;;;;;;4.70;3.20;;;23.90;71.70;;;;;;5031428;28;20523;-66
2022/08/30 06:47:58;;;;;;;3.47;3.27;;;23.90;71.60;;;;;;5031053;28;21004;-66
2022/08/30 06:50:26;;;;;;;3.50;3.20;;;23.90;71.50;;;;;;5031003;28;20524;-66
2022/08/30 06:52:53;;;;;;;3.37;3.07;;;23.90;71.40;;;;;;5031395;28;20441;-65
2022/08/30 06:55:20;;;;;;;2.93;2.73;;;23.90;71.20;;;;;;5030970;28;20489;-65
2022/08/30 06:57:47;;;;;;;5.87;2.90;;;23.90;71.20;;;;;;5031063;28;20986;-66
2022/08/30 07:00:16;;;;;;;3.20;3.00;;;23.90;71.10;;;;;;5031015;28;20532;-66
2022/08/30 07:02:44;;;;;;;2.90;2.70;;;23.90;71.10;;;;;;5031053;28;20476;-65
2022/08/30 07:05:11;;;;;;;3.17;2.97;;;23.90;70.90;;;;;;5031227;28;20479;-65
2022/08/30 07:07:39;;;;;;;2.80;2.70;;;23.90;70.90;;;;;;5031044;28;20465;-66
2022/08/30 07:10:07;;;;;;;6.60;2.87;;;23.90;70.80;;;;;;5032793;28;20536;-66
2022/08/30 07:12:35;;;;;;;3.00;2.90;;;23.90;70.70;;;;;;5034721;28;20965;-66
2022/08/30 07:15:03;;;;;;;3.20;3.00;;;23.90;70.60;;;;;;5034449;28;20487;-66
2022/08/30 07:20:17;;;;;;;5.00;3.03;;;23.90;70.50;;;;;;5034330;28;20544;-66
2022/08/30 07:22:46;;;;;;;2.70;2.50;;;23.90;70.50;;;;;;5034296;28;20459;-66
2022/08/30 07:25:14;;;;;;;2.97;2.87;;;23.90;70.40;;;;;;5034448;28;20877;-66
2022/08/30 07:27:41;;;;;;;3.63;3.33;;;23.90;70.50;;;;;;5034365;28;20519;-66
2022/08/30 07:30:09;;;;;;;3.00;2.80;;;23.90;70.40;;;;;;5034146;28;20453;-66
2022/08/30 07:32:37;;;;;;;2.50;2.30;;;23.90;70.40;;;;;;5034308;28;20449;-66
2022/08/30 07:35:04;;;;;;;3.80;3.40;;;23.90;70.40;;;;;;5034107;28;20571;-66
2022/08/30 07:37:31;;;;;;;2.90;2.70;;;23.90;70.30;;;;;;5034153;28;20477;-66
2022/08/30 07:39:59;;;;;;;3.30;3.00;;;23.90;70.10;;;;;;5033942;28;20800;-66
2022/08/30 07:42:26;;;;;;;3.00;2.80;;;23.90;70.20;;;;;;5033955;28;20532;-66
2022/08/30 07:44:53;;;;;;;2.90;2.80;;;23.90;70.20;;;;;;5034318;28;20546;-66
2022/08/30 07:47:20;;;;;;;3.30;3.03;;;23.90;70.20;;;;;;5033807;28;20461;-66
2022/08/30 07:49:47;;;;;;;3.23;3.00;;;23.90;70.10;;;;;;5033730;28;20503;-66
2022/08/30 07:52:13;;;;;;;2.77;2.57;;;23.90;70.00;;;;;;5033807;28;20480;-66
2022/08/30 07:54:41;;;;;;;2.43;2.27;;;23.90;70.10;;;;;;5033740;28;20469;-66
2022/08/30 07:57:10;;;;;;;3.10;3.00;;;23.90;70.00;;;;;;5033571;28;20993;-65
2022/08/30 07:59:37;;;;;;;2.80;2.57;;;23.90;70.00;;;;;;5033493;28;20457;-66
2022/08/30 08:02:04;;;;;;;3.00;2.80;;;24.00;70.10;;;;;;5033477;28;20544;-66
2022/08/30 08:04:31;;;;;;;2.87;2.67;;;24.00;70.00;;;;;;5033510;28;20473;-65
2022/08/30 08:06:58;;;;;;;4.40;3.00;;;24.00;70.10;;;;;;5033682;28;20465;-65
2022/08/30 08:09:25;;;;;;;2.80;2.60;;;24.00;70.00;;;;;;5033350;28;20524;-66
2022/08/30 08:11:52;;;;;;;2.73;2.53;;;24.00;70.00;;;;;;5033467;28;20536;-66
2022/08/30 08:14:22;;;;;;;2.87;2.70;;;24.00;70.10;;;;;;5033365;28;20445;-66
2022/08/30 08:16:49;;;;;;;3.30;3.10;;;24.00;69.90;;;;;;5033267;28;20649;-66
2022/08/30 08:19:16;;;;;;;3.17;2.97;;;24.00;69.90;;;;;;5033167;28;20527;-66
2022/08/30 08:21:43;;;;;;;3.03;2.83;;;24.00;69.80;;;;;;5033266;28;20481;-66
2022/08/30 08:24:10;;;;;;;2.60;2.50;;;24.00;69.80;;;;;;5033286;28;20461;-65
2022/08/30 08:26:38;;;;;;;2.77;2.67;;;24.00;69.70;;;;;;5033115;28;20501;-66
2022/08/30 08:29:06;;;;;;;2.67;2.50;;;24.00;69.60;;;;;;5032994;28;20548;-66
2022/08/30 08:31:34;;;;;;;2.90;2.70;;;24.00;70.50;;;;;;5032980;28;20484;-66
2022/08/30 08:34:03;;;;;;;3.23;3.03;;;24.00;69.80;;;;;;5033176;28;20487;-66
2022/08/30 08:36:30;;;;;;;3.40;2.63;;;24.00;69.70;;;;;;5032762;28;20837;-66
2022/08/30 08:38:57;;;;;;;2.60;2.40;;;24.00;69.70;;;;;;5032831;28;20451;-66
2022/08/30 08:41:36;;;;;;;3.80;2.87;;;24.00;69.60;;;;;;5033256;28;20531;-66
2022/08/30 08:44:07;;;;;;;4.40;3.00;;;24.00;69.60;;;;;;5032888;28;20506;-66
2022/08/30 08:46:41;;;;;;;3.70;2.90;;;24.00;69.50;;;;;;5032714;28;20548;-66
2022/08/30 08:49:08;;;;;;;2.33;2.23;;;24.00;69.50;;;;;;5032605;28;20452;-65
2022/08/30 08:54:32;;;;;;;2.87;2.67;;;24.00;69.40;;;;;;5032888;28;20421;-66
2022/08/30 08:56:59;;;;;;;3.07;2.87;;;24.00;69.40;;;;;;5032629;28;20567;-66
2022/08/30 08:59:26;;;;;;;2.40;2.30;;;24.00;69.40;;;;;;5031734;28;20530;-66
2022/08/30 09:01:57;;;;;;;2.83;2.67;;;24.00;69.20;;;;;;5032465;28;20472;-66
2022/08/30 09:04:32;;;;;;;3.50;3.30;;;24.00;69.30;;;;;;5032533;28;20536;-65
2022/08/30 09:07:03;;;;;;;3.13;2.77;;;24.00;69.30;;;;;;5032351;28;20961;-65
2022/08/30 09:09:34;;;;;;;2.30;2.20;;;24.10;69.40;;;;;;5032076;28;20445;-66
2022/08/30 09:12:01;;;;;;;3.13;2.77;;;24.00;69.30;;;;;;5032605;28;20540;-66
2022/08/30 09:14:34;;;;;;;2.60;2.50;;;24.00;69.20;;;;;;5032309;28;20528;-66
2022/08/30 09:17:04;;;;;;;3.23;3.03;;;24.00;69.10;;;;;;5032027;28;20559;-66
2022/08/30 09:19:34;;;;;;;2.17;2.07;;;24.10;69.30;;;;;;5032004;28;20481;-66
2022/08/30 09:22:04;;;;;;;2.87;2.77;;;24.10;69.30;;;;;;5032179;28;20453;-66
2022/08/30 09:24:39;;;;;;;2.90;2.70;;;24.10;69.30;;;;;;5032125;28;20481;-66
2022/08/30 09:27:19;;;;;;;2.90;2.70;;;24.10;69.40;;;;;;5032353;28;20464;-66
2022/08/30 09:30:02;;;;;;;2.83;2.53;;;24.10;69.30;;;;;;5031787;28;20954;-66
2022/08/30 09:32:34;;;;;;;2.60;2.50;;;24.00;69.20;;;;;;5031892;28;20484;-65
2022/08/30 09:35:01;;;;;;;2.60;2.50;;;24.10;69.30;;;;;;5031936;28;20480;-66
2022/08/30 09:37:33;;;;;;;2.53;2.33;;;24.10;69.20;;;;;;5031700;28;20568;-66
2022/08/30 09:40:00;;;;;;;2.90;2.80;;;24.10;69.30;;;;;;5031831;28;20537;-66
2022/08/30 09:42:29;;;;;;;3.53;2.27;;;24.10;69.30;;;;;;5031864;28;20540;-65
2022/08/30 09:45:09;;;;;;;2.80;2.60;;;24.10;69.30;;;;;;5031872;28;20556;-66
2022/08/30 09:47:40;;;;;;;2.70;2.50;;;24.10;69.10;;;;;;5032146;28;20495;-66
2022/08/30 09:50:11;;;;;;;2.43;2.27;;;24.10;69.30;;;;;;5031002;28;20540;-64
2022/08/30 09:52:59;;;;;;;3.10;2.90;;;24.10;69.20;;;;;;5031571;28;20492;-66
2022/08/30 09:55:54;;;;;;;3.33;3.07;;;24.10;70.00;;;;;;5031513;28;20520;-67
2022/08/30 09:58:30;;;;;;;3.30;2.60;;;24.10;71.40;;;;;;5030402;28;20549;-65
2022/08/30 10:01:04;;;;;;;3.40;3.00;;;24.10;72.00;;;;;;5031784;28;20859;-66
2022/08/30 10:03:38;;;;;;;3.42;3.13;;;24.10;72.00;;;;;;5030716;28;20469;-66
2022/08/30 10:06:13;;;;;;;3.73;3.17;;;24.20;72.30;;;;;;5031557;28;20520;-67
2022/08/30 10:08:51;;;;;;;14.83;6.47;;;24.20;71.70;;;;;;5031347;28;20463;-68
2022/08/30 10:11:26;;;;;;;16.97;8.20;;;24.30;72.10;;;;;;5031590;28;20449;-68
2022/08/30 10:14:17;;;;;;;19.73;10.47;;;24.30;72.80;;;;;;5031652;28;20495;-68
2022/08/30 10:16:53;;;;;;;9.70;5.80;;;24.30;73.40;;;;;;5031112;28;20481;-67
2022/08/30 10:19:29;;;;;;;10.80;6.90;;;24.30;74.00;;;;;;5031514;28;20909;-67
2022/08/30 10:22:02;;;;;;;11.97;6.30;;;24.30;74.70;;;;;;5031456;28;20440;-65
2022/08/30 10:24:35;;;;;;;15.10;6.87;;;24.30;75.60;;;;;;5031365;28;20527;-65
2022/08/30 10:27:07;;;;;;;7.87;6.00;;;24.20;75.30;;;;;;5031500;28;20869;-65
2022/08/30 10:29:40;;;;;;;8.60;5.03;;;24.20;75.50;;;;;;5031182;28;20904;-65
2022/08/30 10:32:14;;;;;;;8.60;5.80;;;24.30;75.60;;;;;;5031541;28;20706;-65
2022/08/30 10:34:48;;;;;;;6.03;3.90;;;24.20;75.00;;;;;;5031078;28;20484;-64
2022/08/30 10:37:19;;;;;;;5.63;4.43;;;24.20;74.90;;;;;;5031123;28;20911;-64
2022/08/30 10:39:50;;;;;;;8.67;4.53;;;24.20;75.50;;;;;;5031273;28;20848;-65
2022/08/30 10:42:21;;;;;;;4.00;3.60;;;24.30;75.40;;;;;;5031135;28;20538;-65
2022/08/30 10:44:51;;;;;;;3.93;3.47;;;24.30;74.90;;;;;;5032351;28;20449;-66
2022/08/30 10:47:27;;;;;;;5.80;5.20;;;24.30;74.90;;;;;;5034838;28;20830;-65
2022/08/30 10:50:03;;;;;;;4.00;3.70;;;24.30;75.30;;;;;;5034460;28;20480;-67
2022/08/30 10:52:37;;;;;;;7.13;4.40;;;24.30;75.30;;;;;;5015180;28;20943;-66
2022/08/30 10:55:11;;;;;;;3.73;3.30;;;24.30;75.20;;;;;;5015222;28;20477;-65
2022/08/30 10:57:38;;;;;;;3.03;2.80;;;24.30;75.20;;;;;;5015004;28;20580;-64
2022/08/30 11:00:09;;;;;;;3.57;3.27;;;24.30;75.60;;;;;;5015622;28;20446;-63
2022/08/30 11:03:15;;;;;;;3.30;3.03;;;24.30;75.50;;;;;;5034742;28;20826;-65
2022/08/30 11:06:14;;;;;;;5.47;3.20;;;24.30;75.60;;;;;;5034919;28;20828;-59
2022/08/30 11:09:12;;;;;;;3.90;2.90;;;24.40;74.90;;;;;;5034641;28;20528;-60
2022/08/30 11:11:55;;;;;;;3.20;3.00;;;24.40;74.20;;;;;;5034340;28;20523;-59
2022/08/30 11:14:22;;;;;;;4.80;3.00;;;24.40;73.80;;;;;;5034888;28;20471;-59
2022/08/30 11:16:52;;;;;;;3.50;3.20;;;24.40;73.60;;;;;;5034408;28;20517;-61
2022/08/30 11:19:25;;;;;;;3.13;2.83;;;24.40;73.30;;;;;;5034620;28;20457;-59
2022/08/30 11:22:08;;;;;;;3.10;2.80;;;24.50;73.30;;;;;;5034462;28;20453;-59
2022/08/30 11:25:00;;;;;;;2.60;2.50;;;24.50;73.10;;;;;;5034535;28;20873;-61
2022/08/30 11:27:44;;;;;;;3.03;2.73;;;24.40;72.70;;;;;;5034388;28;20982;-61
2022/08/30 11:30:46;;;;;;;4.10;2.80;;;24.40;72.60;;;;;;5034295;28;20488;-59
2022/08/30 11:33:41;;;;;;;2.60;2.40;;;24.40;72.50;;;;;;5034423;28;20474;-60
2022/08/30 11:36:08;;;;;;;2.77;2.67;;;24.50;72.40;;;;;;5034128;28;20485;-60
2022/08/30 11:38:59;;;;;;;3.17;2.87;;;24.50;72.40;;;;;;5034207;28;20495;-60
2022/08/30 11:41:33;;;;;;;3.10;2.90;;;24.50;72.20;;;;;;5034162;28;20452;-60
2022/08/30 11:44:30;;;;;;;2.60;2.50;;;24.40;72.00;;;;;;5034055;28;20445;-59
2022/08/30 11:46:58;;;;;;;3.07;2.27;;;24.50;72.00;;;;;;5034060;28;20461;-60
2022/08/30 11:49:56;;;;;;;3.97;3.67;;;24.50;71.80;;;;;;5033968;28;20943;-59
2022/08/30 11:52:36;;;;;;;2.90;2.70;;;24.40;71.70;;;;;;5033373;28;20469;-61
2022/08/30 11:55:18;;;;;;;2.63;2.53;;;24.50;71.70;;;;;;5033376;28;20445;-60
2022/08/30 11:57:50;;;;;;;3.17;2.87;;;24.50;71.80;;;;;;5033608;28;20527;-59
2022/08/30 12:00:29;;;;;;;2.80;2.70;;;24.50;71.60;;;;;;5033736;28;20449;-59
2022/08/30 12:02:59;;;;;;;2.27;2.17;;;24.40;71.50;;;;;;5033574;28;20447;-59
2022/08/30 12:06:00;;;;;;;6.60;2.60;;;24.50;71.50;;;;;;5033784;28;20451;-59
2022/08/30 12:08:50;;;;;;;2.47;2.37;;;24.40;71.30;;;;;;4934171;29;20451;-62
2022/08/30 12:12:03;;;;;;;2.60;2.50;;;24.50;71.30;;;;;;4933928;29;20464;-61
2022/08/30 12:14:53;;;;;;;2.40;2.30;;;24.50;72.10;;;;;;5025711;28;20519;-61
2022/08/30 12:20:23;;;;;;;2.07;1.97;;;24.50;71.20;;;;;;5033699;28;20468;-61
2022/08/30 12:22:51;;;;;;;2.70;2.53;;;24.50;71.10;;;;;;5033430;28;20527;-60
2022/08/30 12:25:25;;;;;;;2.60;2.40;;;24.50;71.00;;;;;;5033358;28;20487;-60
2022/08/30 12:28:07;;;;;;;2.47;2.37;;;24.50;71.00;;;;;;5033162;28;20492;-61
2022/08/30 12:30:38;;;;;;;3.03;2.93;;;24.50;70.90;;;;;;5033174;28;20451;-59
2022/08/30 12:33:06;;;;;;;2.40;2.30;;;24.50;70.70;;;;;;5033289;28;20555;-62
2022/08/30 12:35:34;;;;;;;2.50;2.30;;;24.50;70.70;;;;;;5033114;28;20461;-61
2022/08/30 12:38:05;;;;;;;2.30;2.10;;;24.50;70.60;;;;;;5063703;22;21155;-59
2022/08/30 12:40:34;;;;;;;2.13;1.90;;;24.50;70.50;;;;;;5052989;28;21043;-61
2022/08/30 12:43:04;;;;;;;2.40;2.30;;;24.50;70.40;;;;;;5052823;28;20455;-59
2022/08/30 12:45:35;;;;;;;2.27;2.10;;;24.50;70.30;;;;;;5053244;28;20439;-60
2022/08/30 12:48:06;;;;;;;2.13;2.03;;;24.50;70.30;;;;;;5070065;28;20538;-61
2022/08/30 12:50:37;;;;;;;3.03;2.83;;;24.50;70.20;;;;;;5072628;28;20525;-61
2022/08/30 12:53:08;;;;;;;2.53;2.43;;;24.50;70.10;;;;;;5072809;28;20479;-60
2022/08/30 12:55:49;;;;;;;2.60;2.43;;;24.50;70.00;;;;;;5072532;28;20479;-59
2022/08/30 12:58:16;;;;;;;2.90;2.70;;;24.50;69.90;;;;;;5073046;28;20489;-60
2022/08/30 13:00:45;;;;;;;2.13;2.03;;;24.50;69.80;;;;;;5072510;28;20538;-58
2022/08/30 13:03:33;;;;;;;2.10;1.80;;;24.50;69.60;;;;;;5072732;28;20474;-59
2022/08/30 13:06:01;;;;;;;2.10;2.00;;;24.50;69.50;;;;;;5072378;28;20932;-59
2022/08/30 13:08:33;;;;;;;2.00;1.90;;;24.50;69.40;;;;;;5071679;28;20447;-59
2022/08/30 13:11:02;;;;;;;2.53;1.90;;;24.60;69.50;;;;;;5072320;28;20447;-60
2022/08/30 13:13:36;;;;;;;2.20;2.10;;;24.60;69.40;;;;;;5072454;28;20534;-60